sensor_id;sensor_type;location;lat;lon;timestamp;temperature;humidity
23729;DHT22;12045;60.214;24.724;2023-02-28T00:01:24;2.40;99.90
23729;DHT22;12045;60.214;24.724;2023-02-28T00:03:52;2.30;99.90
23729;DHT22;12045;60.214;24.724;2023-02-28T00:06:19;2.30;99.90
23729;DHT22;12045;60.214;24.724;2023-02-28T00:08:48;2.40;99.90
23729;DHT22;12045;60.214;24.724;2023-02-28T00:11:16;2.30;99.90
23729;DHT22;12045;60.214;24.724;2023-02-28T00:13:47;4.20;99.90
23729;DHT22;12045;60.214;24.724;2023-02-28T00:16:20;4.30;99.90
23729;DHT22;12045;60.214;24.724;2023-02-28T00:18:49;2.90;99.90
23729;DHT22;12045;60.214;24.724;2023-02-28T00:21:17;2.20;99.90
23729;DHT22;12045;60.214;24.724;2023-02-28T00:23:45;2.20;99.90
23729;DHT22;12045;60.214;24.724;2023-02-28T00:28:41;2.50;99.90
23729;DHT22;12045;60.214;24.724;2023-02-28T00:31:08;2.40;99.90
23729;DHT22;12045;60.214;24.724;2023-02-28T00:33:36;2.30;99.90
23729;DHT22;12045;60.214;24.724;2023-02-28T00:36:09;2.40;99.90
23729;DHT22;12045;60.214;24.724;2023-02-28T00:38:37;2.40;99.90
23729;DHT22;12045;60.214;24.724;2023-02-28T00:41:05;2.20;99.90
23729;DHT22;12045;60.214;24.724;2023-02-28T00:43:34;3.30;99.90
23729;DHT22;12045;60.214;24.724;2023-02-28T00:46:02;3.20;99.90
23729;DHT22;12045;60.214;24.724;2023-02-28T00:50:58;2.70;99.90
23729;DHT22;12045;60.214;24.724;2023-02-28T00:53:25;2.30;99.90
23729;DHT22;12045;60.214;24.724;2023-02-28T00:55:53;2.30;99.90
23729;DHT22;12045;60.214;24.724;2023-02-28T00:58:21;3.00;99.90
23729;DHT22;12045;60.214;24.724;2023-02-28T01:00:48;3.40;99.90
23729;DHT22;12045;60.214;24.724;2023-02-28T01:03:18;2.50;99.90
23729;DHT22;12045;60.214;24.724;2023-02-28T01:05:46;3.30;99.90
23729;DHT22;12045;60.214;24.724;2023-02-28T01:08:14;3.30;99.90
23729;DHT22;12045;60.214;24.724;2023-02-28T01:10:42;2.90;99.90
23729;DHT22;12045;60.214;24.724;2023-02-28T01:13:11;1.80;99.90
23729;DHT22;12045;60.214;24.724;2023-02-28T01:15:52;2.90;99.90
23729;DHT22;12045;60.214;24.724;2023-02-28T01:18:21;2.20;99.90
23729;DHT22;12045;60.214;24.724;2023-02-28T01:20:48;2.30;99.90
23729;DHT22;12045;60.214;24.724;2023-02-28T01:23:16;3.30;99.90
23729;DHT22;12045;60.214;24.724;2023-02-28T01:25:43;2.80;99.90
23729;DHT22;12045;60.214;24.724;2023-02-28T01:28:12;2.70;99.90
23729;DHT22;12045;60.214;24.724;2023-02-28T01:30:48;2.30;99.90
23729;DHT22;12045;60.214;24.724;2023-02-28T01:33:16;2.70;99.90
23729;DHT22;12045;60.214;24.724;2023-02-28T01:35:46;2.50;99.90
23729;DHT22;12045;60.214;24.724;2023-02-28T01:38:14;2.50;99.90
23729;DHT22;12045;60.214;24.724;2023-02-28T01:40:49;2.90;99.90
23729;DHT22;12045;60.214;24.724;2023-02-28T01:43:32;2.40;99.90
23729;DHT22;12045;60.214;24.724;2023-02-28T01:46:16;2.50;99.90
23729;DHT22;12045;60.214;24.724;2023-02-28T01:48:53;2.60;99.90
23729;DHT22;12045;60.214;24.724;2023-02-28T01:51:31;2.70;99.90
23729;DHT22;12045;60.214;24.724;2023-02-28T01:54:04;3.60;99.90
23729;DHT22;12045;60.214;24.724;2023-02-28T01:56:35;3.00;99.90
23729;DHT22;12045;60.214;24.724;2023-02-28T01:59:03;3.40;99.90
23729;DHT22;12045;60.214;24.724;2023-02-28T02:01:31;2.60;99.90
23729;DHT22;12045;60.214;24.724;2023-02-28T02:04:01;2.50;99.90
23729;DHT22;12045;60.214;24.724;2023-02-28T02:06:43;3.50;99.90
23729;DHT22;12045;60.214;24.724;2023-02-28T02:09:12;3.30;99.90
23729;DHT22;12045;60.214;24.724;2023-02-28T02:11:41;2.70;99.90
23729;DHT22;12045;60.214;24.724;2023-02-28T02:19:53;2.80;99.90
23729;DHT22;12045;60.214;24.724;2023-02-28T02:25:53;2.50;99.90
23729;DHT22;12045;60.214;24.724;2023-02-28T02:42:39;2.60;99.90
23729;DHT22;12045;60.214;24.724;2023-02-28T02:45:12;3.50;99.90
23729;DHT22;12045;60.214;24.724;2023-02-28T02:47:43;1.90;99.90
23729;DHT22;12045;60.214;24.724;2023-02-28T02:50:22;3.20;99.90
23729;DHT22;12045;60.214;24.724;2023-02-28T02:52:54;2.30;99.90
23729;DHT22;12045;60.214;24.724;2023-02-28T02:55:23;3.20;99.90
23729;DHT22;12045;60.214;24.724;2023-02-28T02:57:58;4.30;99.90
23729;DHT22;12045;60.214;24.724;2023-02-28T03:00:31;2.30;99.90
23729;DHT22;12045;60.214;24.724;2023-02-28T03:05:35;2.30;99.90
23729;DHT22;12045;60.214;24.724;2023-02-28T03:08:06;2.80;99.90
23729;DHT22;12045;60.214;24.724;2023-02-28T03:10:40;2.30;99.90
23729;DHT22;12045;60.214;24.724;2023-02-28T03:24:08;2.70;99.90
23729;DHT22;12045;60.214;24.724;2023-02-28T03:26:45;2.60;99.90
23729;DHT22;12045;60.214;24.724;2023-02-28T03:29:23;3.30;99.90
23729;DHT22;12045;60.214;24.724;2023-02-28T03:32:03;1.80;99.90
23729;DHT22;12045;60.214;24.724;2023-02-28T03:34:36;2.70;99.90
23729;DHT22;12045;60.214;24.724;2023-02-28T03:37:10;2.30;99.90
23729;DHT22;12045;60.214;24.724;2023-02-28T03:39:45;2.90;99.90
23729;DHT22;12045;60.214;24.724;2023-02-28T03:42:26;2.40;99.90
23729;DHT22;12045;60.214;24.724;2023-02-28T03:44:57;3.40;99.90
23729;DHT22;12045;60.214;24.724;2023-02-28T03:47:46;3.40;99.90
23729;DHT22;12045;60.214;24.724;2023-02-28T03:52:50;2.60;99.90
23729;DHT22;12045;60.214;24.724;2023-02-28T03:55:20;3.10;99.90
23729;DHT22;12045;60.214;24.724;2023-02-28T04:00:38;2.60;99.90
23729;DHT22;12045;60.214;24.724;2023-02-28T04:03:08;2.70;99.90
23729;DHT22;12045;60.214;24.724;2023-02-28T04:05:48;2.40;99.90
23729;DHT22;12045;60.214;24.724;2023-02-28T04:08:17;3.60;99.90
23729;DHT22;12045;60.214;24.724;2023-02-28T04:10:51;2.40;99.90
23729;DHT22;12045;60.214;24.724;2023-02-28T04:13:20;2.40;99.90
23729;DHT22;12045;60.214;24.724;2023-02-28T04:15:47;2.40;99.90
23729;DHT22;12045;60.214;24.724;2023-02-28T04:18:15;2.80;99.90
23729;DHT22;12045;60.214;24.724;2023-02-28T04:20:42;2.30;99.90
23729;DHT22;12045;60.214;24.724;2023-02-28T04:23:10;2.50;99.90
23729;DHT22;12045;60.214;24.724;2023-02-28T04:25:38;2.60;99.90
23729;DHT22;12045;60.214;24.724;2023-02-28T04:28:07;2.40;99.90
23729;DHT22;12045;60.214;24.724;2023-02-28T04:30:35;2.40;99.90
23729;DHT22;12045;60.214;24.724;2023-02-28T04:33:03;2.40;99.90
23729;DHT22;12045;60.214;24.724;2023-02-28T04:35:30;2.40;99.90
23729;DHT22;12045;60.214;24.724;2023-02-28T04:37:58;2.50;99.90
23729;DHT22;12045;60.214;24.724;2023-02-28T04:40:25;2.50;99.90
23729;DHT22;12045;60.214;24.724;2023-02-28T04:42:53;2.60;99.90
23729;DHT22;12045;60.214;24.724;2023-02-28T04:47:48;2.70;99.90
23729;DHT22;12045;60.214;24.724;2023-02-28T04:50:16;2.50;99.90
23729;DHT22;12045;60.214;24.724;2023-02-28T04:52:43;2.60;99.90
23729;DHT22;12045;60.214;24.724;2023-02-28T04:55:10;2.70;99.90
23729;DHT22;12045;60.214;24.724;2023-02-28T04:57:38;2.70;99.90
23729;DHT22;12045;60.214;24.724;2023-02-28T05:00:08;2.70;99.90
23729;DHT22;12045;60.214;24.724;2023-02-28T05:02:39;2.70;99.90
23729;DHT22;12045;60.214;24.724;2023-02-28T05:05:06;2.60;99.90
23729;DHT22;12045;60.214;24.724;2023-02-28T05:07:34;2.80;99.90
23729;DHT22;12045;60.214;24.724;2023-02-28T05:10:11;2.90;99.90
23729;DHT22;12045;60.214;24.724;2023-02-28T05:15:24;2.50;99.90
23729;DHT22;12045;60.214;24.724;2023-02-28T05:17:52;2.80;99.90
23729;DHT22;12045;60.214;24.724;2023-02-28T05:20:19;2.90;99.90
23729;DHT22;12045;60.214;24.724;2023-02-28T05:28:08;2.90;99.90
23729;DHT22;12045;60.214;24.724;2023-02-28T05:35:57;2.90;99.90
23729;DHT22;12045;60.214;24.724;2023-02-28T05:38:25;3.10;99.90
23729;DHT22;12045;60.214;24.724;2023-02-28T05:40:52;3.10;99.90
23729;DHT22;12045;60.214;24.724;2023-02-28T05:43:20;2.90;99.90
23729;DHT22;12045;60.214;24.724;2023-02-28T05:45:47;2.90;99.90
23729;DHT22;12045;60.214;24.724;2023-02-28T05:53:37;2.90;99.90
23729;DHT22;12045;60.214;24.724;2023-02-28T05:56:05;5.00;99.90
23729;DHT22;12045;60.214;24.724;2023-02-28T05:58:40;2.90;99.90
23729;DHT22;12045;60.214;24.724;2023-02-28T06:01:41;3.10;99.90
23729;DHT22;12045;60.214;24.724;2023-02-28T06:07:43;2.90;99.90
23729;DHT22;12045;60.214;24.724;2023-02-28T06:22:26;2.80;99.90
23729;DHT22;12045;60.214;24.724;2023-02-28T06:25:00;2.90;99.90
23729;DHT22;12045;60.214;24.724;2023-02-28T06:43:32;3.00;99.90
23729;DHT22;12045;60.214;24.724;2023-02-28T07:00:19;3.00;99.90
23729;DHT22;12045;60.214;24.724;2023-02-28T07:02:47;6.40;99.90
23729;DHT22;12045;60.214;24.724;2023-02-28T07:17:33;3.20;99.90
23729;DHT22;12045;60.214;24.724;2023-02-28T07:20:01;3.20;99.90
23729;DHT22;12045;60.214;24.724;2023-02-28T08:04:44;3.70;99.90
23729;DHT22;12045;60.214;24.724;2023-02-28T08:19:24;3.80;99.90
23729;DHT22;12045;60.214;24.724;2023-02-28T08:26:00;4.00;99.90
23729;DHT22;12045;60.214;24.724;2023-02-28T08:38:21;4.30;99.90
23729;DHT22;12045;60.214;24.724;2023-02-28T08:41:06;3.60;99.90
23729;DHT22;12045;60.214;24.724;2023-02-28T08:49:07;4.40;99.90
23729;DHT22;12045;60.214;24.724;2023-02-28T08:59:21;4.10;99.90
23729;DHT22;12045;60.214;24.724;2023-02-28T09:05:40;3.20;99.90
23729;DHT22;12045;60.214;24.724;2023-02-28T09:08:16;2.90;99.90
23729;DHT22;12045;60.214;24.724;2023-02-28T09:10:47;4.10;99.90
23729;DHT22;12045;60.214;24.724;2023-02-28T09:13:17;2.50;99.90
23729;DHT22;12045;60.214;24.724;2023-02-28T09:15:50;2.60;99.90
23729;DHT22;12045;60.214;24.724;2023-02-28T09:22:07;2.70;99.90
23729;DHT22;12045;60.214;24.724;2023-02-28T09:24:43;2.70;99.90
23729;DHT22;12045;60.214;24.724;2023-02-28T09:27:12;2.90;99.90
23729;DHT22;12045;60.214;24.724;2023-02-28T09:29:40;2.80;99.90
23729;DHT22;12045;60.214;24.724;2023-02-28T09:32:09;2.80;99.90
23729;DHT22;12045;60.214;24.724;2023-02-28T09:34:37;2.80;99.90
23729;DHT22;12045;60.214;24.724;2023-02-28T09:42:55;2.40;99.90
23729;DHT22;12045;60.214;24.724;2023-02-28T09:45:30;2.30;99.90
23729;DHT22;12045;60.214;24.724;2023-02-28T09:54:24;2.60;99.90
23729;DHT22;12045;60.214;24.724;2023-02-28T10:02:54;2.70;99.90
23729;DHT22;12045;60.214;24.724;2023-02-28T10:05:37;3.00;99.90
23729;DHT22;12045;60.214;24.724;2023-02-28T10:18:56;2.90;99.90
23729;DHT22;12045;60.214;24.724;2023-02-28T10:21:34;2.80;99.90
23729;DHT22;12045;60.214;24.724;2023-02-28T10:26:49;3.80;99.90
23729;DHT22;12045;60.214;24.724;2023-02-28T10:32:50;2.60;99.90
23729;DHT22;12045;60.214;24.724;2023-02-28T10:38:50;4.50;99.90
23729;DHT22;12045;60.214;24.724;2023-02-28T10:41:30;4.10;99.90
23729;DHT22;12045;60.214;24.724;2023-02-28T10:48:05;2.60;99.90
23729;DHT22;12045;60.214;24.724;2023-02-28T10:50:59;3.20;99.90
23729;DHT22;12045;60.214;24.724;2023-02-28T10:56:18;2.70;99.90
23729;DHT22;12045;60.214;24.724;2023-02-28T11:09:41;3.30;99.90
23729;DHT22;12045;60.214;24.724;2023-02-28T11:12:27;3.20;99.90
23729;DHT22;12045;60.214;24.724;2023-02-28T11:15:51;3.50;99.90
23729;DHT22;12045;60.214;24.724;2023-02-28T11:20:59;3.80;99.90
23729;DHT22;12045;60.214;24.724;2023-02-28T11:24:06;3.60;99.90
23729;DHT22;12045;60.214;24.724;2023-02-28T11:26:47;4.10;99.90
23729;DHT22;12045;60.214;24.724;2023-02-28T11:32:51;4.70;99.90
23729;DHT22;12045;60.214;24.724;2023-02-28T11:35:33;2.80;99.90
23729;DHT22;12045;60.214;24.724;2023-02-28T11:56:36;3.40;99.90
23729;DHT22;12045;60.214;24.724;2023-02-28T12:13:41;3.30;99.90
23729;DHT22;12045;60.214;24.724;2023-02-28T12:16:21;3.30;99.90
23729;DHT22;12045;60.214;24.724;2023-02-28T12:19:04;2.60;99.90
23729;DHT22;12045;60.214;24.724;2023-02-28T12:27:28;3.20;99.90
23729;DHT22;12045;60.214;24.724;2023-02-28T12:33:06;3.20;99.90
23729;DHT22;12045;60.214;24.724;2023-02-28T12:35:56;3.20;99.90
23729;DHT22;12045;60.214;24.724;2023-02-28T12:38:38;3.50;99.90
23729;DHT22;12045;60.214;24.724;2023-02-28T12:50:52;3.20;99.90
23729;DHT22;12045;60.214;24.724;2023-02-28T12:56:20;3.10;99.90
23729;DHT22;12045;60.214;24.724;2023-02-28T12:59:03;3.00;99.90
23729;DHT22;12045;60.214;24.724;2023-02-28T13:09:57;2.90;99.90
23729;DHT22;12045;60.214;24.724;2023-02-28T13:12:26;3.20;99.90
23729;DHT22;12045;60.214;24.724;2023-02-28T13:15:22;3.60;99.90
23729;DHT22;12045;60.214;24.724;2023-02-28T13:17:54;2.80;99.90
23729;DHT22;12045;60.214;24.724;2023-02-28T13:20:36;2.70;99.90
23729;DHT22;12045;60.214;24.724;2023-02-28T13:23:39;2.60;99.90
23729;DHT22;12045;60.214;24.724;2023-02-28T13:34:35;2.80;99.90
23729;DHT22;12045;60.214;24.724;2023-02-28T13:42:49;2.50;99.90
23729;DHT22;12045;60.214;24.724;2023-02-28T13:45:23;3.70;99.90
23729;DHT22;12045;60.214;24.724;2023-02-28T13:48:02;2.80;99.90
23729;DHT22;12045;60.214;24.724;2023-02-28T14:07:24;2.80;99.90
23729;DHT22;12045;60.214;24.724;2023-02-28T14:10:05;2.70;99.90
23729;DHT22;12045;60.214;24.724;2023-02-28T14:18:56;2.70;99.90
23729;DHT22;12045;60.214;24.724;2023-02-28T14:21:30;2.60;99.90
23729;DHT22;12045;60.214;24.724;2023-02-28T14:24:19;2.60;99.90
23729;DHT22;12045;60.214;24.724;2023-02-28T14:32:33;2.60;99.90
23729;DHT22;12045;60.214;24.724;2023-02-28T14:38:20;2.60;99.90
23729;DHT22;12045;60.214;24.724;2023-02-28T14:46:41;2.50;99.90
23729;DHT22;12045;60.214;24.724;2023-02-28T14:49:25;2.40;99.90
23729;DHT22;12045;60.214;24.724;2023-02-28T14:57:41;2.20;99.90
23729;DHT22;12045;60.214;24.724;2023-02-28T15:00:29;2.20;99.90
23729;DHT22;12045;60.214;24.724;2023-02-28T15:02:58;3.90;99.90
23729;DHT22;12045;60.214;24.724;2023-02-28T15:47:52;1.70;99.90
23729;DHT22;12045;60.214;24.724;2023-02-28T15:50:22;1.50;99.90
23729;DHT22;12045;60.214;24.724;2023-02-28T15:58:12;1.50;99.90
23729;DHT22;12045;60.214;24.724;2023-02-28T16:00:43;1.40;99.90
23729;DHT22;12045;60.214;24.724;2023-02-28T16:03:42;1.20;99.90
23729;DHT22;12045;60.214;24.724;2023-02-28T16:06:36;1.50;99.90
23729;DHT22;12045;60.214;24.724;2023-02-28T16:11:49;1.40;99.90
23729;DHT22;12045;60.214;24.724;2023-02-28T16:14:31;1.50;99.90
23729;DHT22;12045;60.214;24.724;2023-02-28T16:17:39;1.40;99.90
23729;DHT22;12045;60.214;24.724;2023-02-28T16:20:25;1.10;99.90
23729;DHT22;12045;60.214;24.724;2023-02-28T16:23:08;1.60;99.90
23729;DHT22;12045;60.214;24.724;2023-02-28T16:25:50;2.10;99.90
23729;DHT22;12045;60.214;24.724;2023-02-28T16:28:39;3.50;99.90
23729;DHT22;12045;60.214;24.724;2023-02-28T16:31:21;1.20;99.90
23729;DHT22;12045;60.214;24.724;2023-02-28T16:34:06;2.30;99.90
23729;DHT22;12045;60.214;24.724;2023-02-28T16:36:48;1.30;99.90
23729;DHT22;12045;60.214;24.724;2023-02-28T16:39:21;3.00;99.90
23729;DHT22;12045;60.214;24.724;2023-02-28T16:42:03;2.10;99.90
23729;DHT22;12045;60.214;24.724;2023-02-28T16:44:46;1.20;99.90
23729;DHT22;12045;60.214;24.724;2023-02-28T16:47:15;2.40;99.90
23729;DHT22;12045;60.214;24.724;2023-02-28T16:49:57;1.30;99.90
23729;DHT22;12045;60.214;24.724;2023-02-28T16:52:38;2.10;99.90
23729;DHT22;12045;60.214;24.724;2023-02-28T16:55:19;1.30;99.90
23729;DHT22;12045;60.214;24.724;2023-02-28T16:57:55;2.00;99.90
23729;DHT22;12045;60.214;24.724;2023-02-28T17:00:38;1.20;99.90
23729;DHT22;12045;60.214;24.724;2023-02-28T17:03:26;2.00;99.90
23729;DHT22;12045;60.214;24.724;2023-02-28T17:06:17;2.70;99.90
23729;DHT22;12045;60.214;24.724;2023-02-28T17:08:46;1.40;99.90
23729;DHT22;12045;60.214;24.724;2023-02-28T17:11:19;0.10;99.90
23729;DHT22;12045;60.214;24.724;2023-02-28T17:14:00;1.30;99.90
23729;DHT22;12045;60.214;24.724;2023-02-28T17:16:42;3.50;99.90
23729;DHT22;12045;60.214;24.724;2023-02-28T17:19:24;2.50;99.90
23729;DHT22;12045;60.214;24.724;2023-02-28T17:22:08;1.60;99.90
23729;DHT22;12045;60.214;24.724;2023-02-28T17:24:49;3.00;99.90
23729;DHT22;12045;60.214;24.724;2023-02-28T17:27:30;1.50;99.90
23729;DHT22;12045;60.214;24.724;2023-02-28T17:30:18;2.70;99.90
23729;DHT22;12045;60.214;24.724;2023-02-28T17:33:00;2.90;99.90
23729;DHT22;12045;60.214;24.724;2023-02-28T17:35:42;2.40;99.90
23729;DHT22;12045;60.214;24.724;2023-02-28T17:38:23;2.70;99.90
23729;DHT22;12045;60.214;24.724;2023-02-28T17:40:59;0.70;99.90
23729;DHT22;12045;60.214;24.724;2023-02-28T17:43:31;1.30;99.90
23729;DHT22;12045;60.214;24.724;2023-02-28T17:46:19;3.40;99.90
23729;DHT22;12045;60.214;24.724;2023-02-28T17:49:02;2.90;99.90
23729;DHT22;12045;60.214;24.724;2023-02-28T17:51:45;1.40;99.90
23729;DHT22;12045;60.214;24.724;2023-02-28T17:54:26;1.60;99.90
23729;DHT22;12045;60.214;24.724;2023-02-28T17:57:02;3.50;99.90
23729;DHT22;12045;60.214;24.724;2023-02-28T17:59:31;3.00;99.90
23729;DHT22;12045;60.214;24.724;2023-02-28T18:02:02;3.10;99.90
23729;DHT22;12045;60.214;24.724;2023-02-28T18:04:31;2.10;99.90
23729;DHT22;12045;60.214;24.724;2023-02-28T18:06:59;3.00;99.90
23729;DHT22;12045;60.214;24.724;2023-02-28T18:09:27;2.40;99.90
23729;DHT22;12045;60.214;24.724;2023-02-28T18:11:55;2.30;99.90
23729;DHT22;12045;60.214;24.724;2023-02-28T18:14:24;2.70;99.90
23729;DHT22;12045;60.214;24.724;2023-02-28T18:16:54;3.10;99.90
23729;DHT22;12045;60.214;24.724;2023-02-28T18:19:23;1.70;99.90
23729;DHT22;12045;60.214;24.724;2023-02-28T18:21:52;1.10;99.90
23729;DHT22;12045;60.214;24.724;2023-02-28T18:24:22;2.10;99.90
23729;DHT22;12045;60.214;24.724;2023-02-28T18:26:51;3.20;99.90
23729;DHT22;12045;60.214;24.724;2023-02-28T18:29:24;2.90;99.90
23729;DHT22;12045;60.214;24.724;2023-02-28T18:31:54;1.80;99.90
23729;DHT22;12045;60.214;24.724;2023-02-28T18:34:24;2.10;99.90
23729;DHT22;12045;60.214;24.724;2023-02-28T18:36:52;1.90;99.90
23729;DHT22;12045;60.214;24.724;2023-02-28T18:39:19;3.30;99.90
23729;DHT22;12045;60.214;24.724;2023-02-28T18:41:47;2.80;99.90
23729;DHT22;12045;60.214;24.724;2023-02-28T18:44:15;3.70;99.90
23729;DHT22;12045;60.214;24.724;2023-02-28T18:46:48;1.60;99.90
23729;DHT22;12045;60.214;24.724;2023-02-28T18:49:17;1.80;99.90
23729;DHT22;12045;60.214;24.724;2023-02-28T18:51:46;3.20;99.90
23729;DHT22;12045;60.214;24.724;2023-02-28T18:54:15;1.60;99.90
23729;DHT22;12045;60.214;24.724;2023-02-28T18:56:55;2.10;99.90
23729;DHT22;12045;60.214;24.724;2023-02-28T18:59:23;1.60;99.90
23729;DHT22;12045;60.214;24.724;2023-02-28T19:01:50;2.60;99.90
23729;DHT22;12045;60.214;24.724;2023-02-28T19:04:18;0.90;99.90
23729;DHT22;12045;60.214;24.724;2023-02-28T19:06:45;3.10;99.90
23729;DHT22;12045;60.214;24.724;2023-02-28T19:09:13;1.30;99.90
23729;DHT22;12045;60.214;24.724;2023-02-28T19:11:40;1.50;99.90
23729;DHT22;12045;60.214;24.724;2023-02-28T19:14:08;1.80;99.90
23729;DHT22;12045;60.214;24.724;2023-02-28T19:16:35;3.10;99.90
23729;DHT22;12045;60.214;24.724;2023-02-28T19:19:03;1.70;99.90
23729;DHT22;12045;60.214;24.724;2023-02-28T19:21:30;3.90;99.90
23729;DHT22;12045;60.214;24.724;2023-02-28T19:24:00;1.10;99.90
23729;DHT22;12045;60.214;24.724;2023-02-28T19:26:28;2.20;99.90
23729;DHT22;12045;60.214;24.724;2023-02-28T19:28:56;3.40;99.90
23729;DHT22;12045;60.214;24.724;2023-02-28T19:31:25;2.90;99.90
23729;DHT22;12045;60.214;24.724;2023-02-28T19:33:53;2.20;99.90
23729;DHT22;12045;60.214;24.724;2023-02-28T19:36:22;2.90;99.90
23729;DHT22;12045;60.214;24.724;2023-02-28T19:38:50;3.40;99.90
23729;DHT22;12045;60.214;24.724;2023-02-28T19:41:18;3.10;99.90
23729;DHT22;12045;60.214;24.724;2023-02-28T19:43:46;2.90;99.90
23729;DHT22;12045;60.214;24.724;2023-02-28T19:46:14;1.30;99.90
23729;DHT22;12045;60.214;24.724;2023-02-28T19:48:43;4.00;99.90
23729;DHT22;12045;60.214;24.724;2023-02-28T19:51:13;1.80;99.90
23729;DHT22;12045;60.214;24.724;2023-02-28T19:53:41;1.70;99.90
23729;DHT22;12045;60.214;24.724;2023-02-28T19:56:09;1.70;99.90
23729;DHT22;12045;60.214;24.724;2023-02-28T19:58:38;1.10;99.90
23729;DHT22;12045;60.214;24.724;2023-02-28T20:01:14;2.60;99.90
23729;DHT22;12045;60.214;24.724;2023-02-28T20:03:42;1.40;99.90
23729;DHT22;12045;60.214;24.724;2023-02-28T20:06:13;2.60;99.90
23729;DHT22;12045;60.214;24.724;2023-02-28T20:08:41;3.40;99.90
23729;DHT22;12045;60.214;24.724;2023-02-28T20:11:11;2.40;99.90
23729;DHT22;12045;60.214;24.724;2023-02-28T20:13:39;2.10;99.90
23729;DHT22;12045;60.214;24.724;2023-02-28T20:16:09;2.70;99.90
23729;DHT22;12045;60.214;24.724;2023-02-28T20:18:38;3.80;99.90
23729;DHT22;12045;60.214;24.724;2023-02-28T20:21:10;3.80;99.90
23729;DHT22;12045;60.214;24.724;2023-02-28T20:23:40;3.00;99.90
23729;DHT22;12045;60.214;24.724;2023-02-28T20:26:08;3.10;99.90
23729;DHT22;12045;60.214;24.724;2023-02-28T20:28:37;3.60;99.90
23729;DHT22;12045;60.214;24.724;2023-02-28T20:31:16;2.00;99.90
23729;DHT22;12045;60.214;24.724;2023-02-28T20:33:44;0.90;99.90
23729;DHT22;12045;60.214;24.724;2023-02-28T20:36:13;3.20;99.90
23729;DHT22;12045;60.214;24.724;2023-02-28T20:38:42;2.40;99.90
23729;DHT22;12045;60.214;24.724;2023-02-28T20:41:11;1.80;99.90
23729;DHT22;12045;60.214;24.724;2023-02-28T20:43:39;1.00;99.90
23729;DHT22;12045;60.214;24.724;2023-02-28T20:46:07;1.80;99.90
23729;DHT22;12045;60.214;24.724;2023-02-28T20:48:37;1.00;99.90
23729;DHT22;12045;60.214;24.724;2023-02-28T20:51:05;1.00;99.90
23729;DHT22;12045;60.214;24.724;2023-02-28T20:53:34;2.90;99.90
23729;DHT22;12045;60.214;24.724;2023-02-28T20:56:05;2.60;99.90
23729;DHT22;12045;60.214;24.724;2023-02-28T20:58:35;1.80;99.90
23729;DHT22;12045;60.214;24.724;2023-02-28T21:01:24;3.00;99.90
23729;DHT22;12045;60.214;24.724;2023-02-28T21:03:54;2.60;99.90
23729;DHT22;12045;60.214;24.724;2023-02-28T21:06:25;1.50;99.90
23729;DHT22;12045;60.214;24.724;2023-02-28T21:08:53;1.50;99.90
23729;DHT22;12045;60.214;24.724;2023-02-28T21:11:32;0.80;99.90
23729;DHT22;12045;60.214;24.724;2023-02-28T21:14:06;1.50;99.90
23729;DHT22;12045;60.214;24.724;2023-02-28T21:16:34;1.50;99.90
23729;DHT22;12045;60.214;24.724;2023-02-28T21:19:04;0.80;99.90
23729;DHT22;12045;60.214;24.724;2023-02-28T21:21:37;2.50;99.90
23729;DHT22;12045;60.214;24.724;2023-02-28T21:24:05;0.70;99.90
23729;DHT22;12045;60.214;24.724;2023-02-28T21:26:33;0.70;99.90
23729;DHT22;12045;60.214;24.724;2023-02-28T21:29:01;2.90;99.90
23729;DHT22;12045;60.214;24.724;2023-02-28T21:31:31;2.80;99.90
23729;DHT22;12045;60.214;24.724;2023-02-28T21:34:01;2.50;99.90
23729;DHT22;12045;60.214;24.724;2023-02-28T21:36:33;1.30;99.90
23729;DHT22;12045;60.214;24.724;2023-02-28T21:39:05;2.70;99.90
23729;DHT22;12045;60.214;24.724;2023-02-28T21:41:36;0.90;99.90
23729;DHT22;12045;60.214;24.724;2023-02-28T21:44:04;0.60;99.90
23729;DHT22;12045;60.214;24.724;2023-02-28T21:46:31;0.80;99.90
23729;DHT22;12045;60.214;24.724;2023-02-28T21:49:00;1.50;99.90
23729;DHT22;12045;60.214;24.724;2023-02-28T21:51:29;2.50;99.90
23729;DHT22;12045;60.214;24.724;2023-02-28T21:53:58;1.80;99.90
23729;DHT22;12045;60.214;24.724;2023-02-28T21:56:28;3.20;99.90
23729;DHT22;12045;60.214;24.724;2023-02-28T21:58:57;3.10;99.90
23729;DHT22;12045;60.214;24.724;2023-02-28T22:01:36;1.70;99.90
23729;DHT22;12045;60.214;24.724;2023-02-28T22:04:06;0.20;99.90
23729;DHT22;12045;60.214;24.724;2023-02-28T22:06:36;0.50;99.90
23729;DHT22;12045;60.214;24.724;2023-02-28T22:09:06;0.10;99.90
23729;DHT22;12045;60.214;24.724;2023-02-28T22:11:35;0.50;99.90
23729;DHT22;12045;60.214;24.724;2023-02-28T22:14:04;0.50;99.90
23729;DHT22;12045;60.214;24.724;2023-02-28T22:16:33;0.50;99.90
23729;DHT22;12045;60.214;24.724;2023-02-28T22:19:17;0.40;99.90
23729;DHT22;12045;60.214;24.724;2023-02-28T22:21:45;0.40;99.90
23729;DHT22;12045;60.214;24.724;2023-02-28T22:24:14;0.40;99.90
23729;DHT22;12045;60.214;24.724;2023-02-28T22:26:44;0.50;99.90
23729;DHT22;12045;60.214;24.724;2023-02-28T22:29:11;0.40;99.90
23729;DHT22;12045;60.214;24.724;2023-02-28T22:31:39;0.20;99.90
23729;DHT22;12045;60.214;24.724;2023-02-28T22:34:10;0.50;99.90
23729;DHT22;12045;60.214;24.724;2023-02-28T22:36:40;0.30;99.90
23729;DHT22;12045;60.214;24.724;2023-02-28T22:39:08;0.30;99.90
23729;DHT22;12045;60.214;24.724;2023-02-28T22:41:37;0.30;99.90
23729;DHT22;12045;60.214;24.724;2023-02-28T22:44:04;0.30;99.90
23729;DHT22;12045;60.214;24.724;2023-02-28T22:46:34;0.40;99.90
23729;DHT22;12045;60.214;24.724;2023-02-28T22:49:03;0.30;99.90
23729;DHT22;12045;60.214;24.724;2023-02-28T22:51:31;1.10;99.90
23729;DHT22;12045;60.214;24.724;2023-02-28T22:53:59;0.30;99.90
23729;DHT22;12045;60.214;24.724;2023-02-28T22:56:28;0.30;99.90
23729;DHT22;12045;60.214;24.724;2023-02-28T22:58:58;-0.50;99.90
23729;DHT22;12045;60.214;24.724;2023-02-28T23:01:29;0.40;99.90
23729;DHT22;12045;60.214;24.724;2023-02-28T23:03:58;0.50;99.90
23729;DHT22;12045;60.214;24.724;2023-02-28T23:06:37;0.50;99.90
23729;DHT22;12045;60.214;24.724;2023-02-28T23:09:14;0.30;99.90
23729;DHT22;12045;60.214;24.724;2023-02-28T23:11:46;0.40;99.90
23729;DHT22;12045;60.214;24.724;2023-02-28T23:14:15;0.30;99.90
23729;DHT22;12045;60.214;24.724;2023-02-28T23:16:49;0.20;99.90
23729;DHT22;12045;60.214;24.724;2023-02-28T23:19:20;0.40;99.90
23729;DHT22;12045;60.214;24.724;2023-02-28T23:21:49;0.20;99.90
23729;DHT22;12045;60.214;24.724;2023-02-28T23:24:19;0.60;99.90
23729;DHT22;12045;60.214;24.724;2023-02-28T23:26:49;0.40;99.90
23729;DHT22;12045;60.214;24.724;2023-02-28T23:29:18;0.30;99.90
23729;DHT22;12045;60.214;24.724;2023-02-28T23:31:45;0.30;99.90
23729;DHT22;12045;60.214;24.724;2023-02-28T23:34:14;0.10;99.90